createdAt,value
2023-03-11T00:02:12.221Z,97556.55
2023-03-11T00:04:48.856Z,97560.17
2023-03-11T00:07:22.904Z,97557.41
2023-03-11T00:09:56.582Z,97555.52
2023-03-11T00:12:30.663Z,97552.09
2023-03-11T00:15:04.620Z,97549.31
2023-03-11T00:17:38.295Z,97548.94
2023-03-11T00:20:20.120Z,97550.90
2023-03-11T00:22:54.317Z,97548.66
2023-03-11T00:25:30.252Z,97541.20
2023-03-11T00:28:05.890Z,97541.79
2023-03-11T00:30:40.440Z,97543.56
2023-03-11T00:33:15.211Z,97542.59
2023-03-11T00:35:49.486Z,97539.47
2023-03-11T00:38:23.779Z,97540.37
2023-03-11T00:40:57.318Z,97535.94
2023-03-11T00:43:31.237Z,97534.64
2023-03-11T00:46:08.270Z,97531.39
2023-03-11T00:48:42.200Z,97525.58
2023-03-11T00:51:18.291Z,97524.02
2023-03-11T00:53:52.317Z,97519.15
2023-03-11T00:56:26.204Z,97515.77
2023-03-11T00:59:00.585Z,97510.56
2023-03-11T01:01:34.434Z,97508.27
2023-03-11T01:04:08.905Z,97501.64
2023-03-11T01:06:45.673Z,97505.14
2023-03-11T01:09:19.819Z,97511.89
2023-03-11T01:11:54.605Z,97510.38
2023-03-11T01:14:28.904Z,97508.05
2023-03-11T01:17:02.616Z,97502.20
2023-03-11T01:19:36.517Z,97505.99
2023-03-11T01:22:10.457Z,97504.07
2023-03-11T01:24:44.286Z,97502.80
2023-03-11T01:27:18.003Z,97500.07
2023-03-11T01:29:52.142Z,97502.16
2023-03-11T01:32:26.175Z,97507.12
2023-03-11T01:34:59.643Z,97507.44
2023-03-11T01:37:33.605Z,97500.44
2023-03-11T01:40:09.644Z,97496.80
2023-03-11T01:42:43.229Z,97486.95
2023-03-11T01:45:36.014Z,97487.39
2023-03-11T01:48:12.053Z,97486.27
2023-03-11T01:50:51.232Z,97485.61
2023-03-11T01:53:26.135Z,97488.97
2023-03-11T01:56:00.267Z,97487.73
2023-03-11T01:58:37.695Z,97482.22
2023-03-11T02:01:11.479Z,97481.31
2023-03-11T02:03:45.963Z,97480.34
2023-03-11T02:06:22.798Z,97480.98
2023-03-11T02:08:57.666Z,97480.50
2023-03-11T02:11:33.355Z,97479.73
2023-03-11T02:14:10.482Z,97479.73
2023-03-11T02:16:44.346Z,97479.79
2023-03-11T02:19:29.271Z,97476.38
2023-03-11T02:22:03.276Z,97474.74
2023-03-11T02:24:47.035Z,97472.62
2023-03-11T02:27:23.079Z,97468.73
2023-03-11T02:30:00.848Z,97466.45
2023-03-11T02:32:36.357Z,97465.02
2023-03-11T02:35:11.323Z,97464.19
2023-03-11T02:37:50.320Z,97463.50
2023-03-11T02:40:43.396Z,97464.04
2023-03-11T02:43:20.424Z,97463.41
2023-03-11T02:45:55.415Z,97465.07
2023-03-11T02:48:30.523Z,97464.86
2023-03-11T02:51:05.072Z,97464.26
2023-03-11T02:53:43.461Z,97460.22
2023-03-11T02:56:17.989Z,97462.88
2023-03-11T02:58:51.713Z,97463.88
2023-03-11T03:01:25.405Z,97460.86
2023-03-11T03:04:00.243Z,97459.00
2023-03-11T03:06:34.857Z,97457.36
2023-03-11T03:09:08.622Z,97456.52
2023-03-11T03:11:42.210Z,97455.83
2023-03-11T03:14:16.258Z,97451.41
2023-03-11T03:16:50.504Z,97453.86
2023-03-11T03:19:25.164Z,97458.77
2023-03-11T03:21:59.618Z,97454.35
2023-03-11T03:24:33.152Z,97455.58
2023-03-11T03:27:07.150Z,97457.52
2023-03-11T03:29:40.705Z,97454.67
2023-03-11T03:32:14.728Z,97454.92
2023-03-11T03:34:48.841Z,97452.87
2023-03-11T03:37:22.578Z,97450.75
2023-03-11T03:39:56.457Z,97450.34
2023-03-11T03:42:30.826Z,97448.86
2023-03-11T03:45:04.990Z,97445.03
2023-03-11T03:47:39.224Z,97448.52
2023-03-11T03:50:15.080Z,97450.00
2023-03-11T03:52:50.772Z,97452.30
2023-03-11T03:55:25.072Z,97451.84
2023-03-11T03:57:59.845Z,97448.67
2023-03-11T04:00:37.344Z,97447.17
2023-03-11T04:03:11.378Z,97439.42
2023-03-11T04:05:53.708Z,97430.91
2023-03-11T04:08:27.523Z,97431.73
2023-03-11T04:11:04.536Z,97426.81
2023-03-11T04:13:39.539Z,97426.04
2023-03-11T04:16:18.625Z,97430.23
2023-03-11T04:18:52.576Z,97429.46
2023-03-11T04:21:26.888Z,97428.52
2023-03-11T04:24:01.493Z,97424.81
2023-03-11T04:26:38.525Z,97424.58
2023-03-11T04:29:14.014Z,97420.92
2023-03-11T04:31:50.441Z,97417.24
2023-03-11T04:34:24.508Z,97417.88
2023-03-11T04:36:59.206Z,97423.61
2023-03-11T04:39:37.192Z,97424.39
2023-03-11T04:42:11.090Z,97424.98
2023-03-11T04:44:44.924Z,97425.42
2023-03-11T04:47:18.809Z,97424.71
2023-03-11T04:49:53.062Z,97423.69
2023-03-11T04:52:26.747Z,97422.80
2023-03-11T04:55:01.276Z,97423.57
2023-03-11T04:57:34.998Z,97429.64
2023-03-11T05:00:12.027Z,97430.44
2023-03-11T05:02:46.391Z,97432.52
2023-03-11T05:05:20.863Z,97430.84
2023-03-11T05:07:54.578Z,97433.66
2023-03-11T05:10:30.168Z,97432.23
2023-03-11T05:13:06.115Z,97432.05
2023-03-11T05:15:42.970Z,97434.02
2023-03-11T05:18:17.622Z,97433.96
2023-03-11T05:20:51.943Z,97430.08
2023-03-11T05:23:28.170Z,97429.59
2023-03-11T05:26:01.657Z,97431.90
2023-03-11T05:28:35.810Z,97428.71
2023-03-11T05:31:13.772Z,97430.79
2023-03-11T05:33:48.382Z,97432.64
2023-03-11T05:36:21.816Z,97432.68
2023-03-11T05:38:55.959Z,97434.13
2023-03-11T05:41:30.355Z,97436.74
2023-03-11T05:44:04.282Z,97435.29
2023-03-11T05:46:38.230Z,97436.17
2023-03-11T05:49:12.700Z,97432.23
2023-03-11T05:51:46.606Z,97429.05
2023-03-11T05:54:20.945Z,97425.04
2023-03-11T05:56:56.214Z,97425.55
2023-03-11T05:59:29.993Z,97424.31
2023-03-11T06:02:08.158Z,97423.70
2023-03-11T06:04:42.030Z,97421.77
2023-03-11T06:07:16.596Z,97423.63
2023-03-11T06:09:53.255Z,97424.10
2023-03-11T06:12:26.879Z,97425.85
2023-03-11T06:15:21.033Z,97431.76
2023-03-11T06:17:55.001Z,97436.52
2023-03-11T06:20:28.644Z,97439.27
2023-03-11T06:23:02.617Z,97442.66
2023-03-11T06:25:36.031Z,97448.79
2023-03-11T06:28:10.001Z,97453.20
2023-03-11T06:30:44.680Z,97455.63
2023-03-11T06:33:20.852Z,97459.40
2023-03-11T06:36:01.988Z,97462.50
2023-03-11T06:38:37.551Z,97455.85
2023-03-11T06:41:11.857Z,97462.73
2023-03-11T06:43:45.765Z,97466.66
2023-03-11T06:46:22.457Z,97467.69
2023-03-11T06:48:58.905Z,97469.38
2023-03-11T06:51:35.062Z,97470.05
2023-03-11T06:54:11.975Z,97470.91
2023-03-11T06:56:45.284Z,97467.45
2023-03-11T06:59:19.930Z,97466.91
2023-03-11T07:01:53.769Z,97472.39
2023-03-11T07:04:27.640Z,97474.70
2023-03-11T07:07:01.342Z,97475.67
2023-03-11T07:09:35.221Z,97476.32
2023-03-11T07:12:11.316Z,97477.65
2023-03-11T07:14:46.107Z,97482.20
2023-03-11T07:17:20.005Z,97486.38
2023-03-11T07:19:55.965Z,97487.45
2023-03-11T07:22:29.704Z,97491.84
2023-03-11T07:25:03.301Z,97490.98
2023-03-11T07:27:37.529Z,97495.17
2023-03-11T07:30:13.189Z,97497.63
2023-03-11T07:32:47.179Z,97498.73
2023-03-11T07:35:20.904Z,97508.15
2023-03-11T07:37:54.404Z,97505.76
2023-03-11T07:40:28.342Z,97502.86
2023-03-11T07:43:02.294Z,97503.87
2023-03-11T07:45:35.759Z,97506.48
2023-03-11T07:48:09.730Z,97508.93
2023-03-11T07:50:43.218Z,97509.83
2023-03-11T07:53:17.052Z,97512.18
2023-03-11T07:55:51.315Z,97514.66
2023-03-11T07:58:25.058Z,97517.66
2023-03-11T08:00:59.100Z,97520.11
2023-03-11T08:03:33.398Z,97526.55
2023-03-11T08:06:13.067Z,97527.11
2023-03-11T08:08:47.265Z,97523.50
2023-03-11T08:11:22.760Z,97521.67
2023-03-11T08:13:58.197Z,97519.52
2023-03-11T08:16:32.200Z,97521.03
2023-03-11T08:19:06.211Z,97524.40
2023-03-11T08:21:39.926Z,97527.95
2023-03-11T08:24:16.147Z,97529.54
2023-03-11T08:26:50.029Z,97531.38
2023-03-11T08:29:23.530Z,97536.16
2023-03-11T08:31:57.052Z,97540.13
2023-03-11T08:34:30.291Z,97545.30
2023-03-11T08:37:04.345Z,97544.20
2023-03-11T08:39:38.114Z,97546.75
2023-03-11T08:42:12.025Z,97550.60
2023-03-11T08:44:45.368Z,97560.30
2023-03-11T08:47:19.457Z,97565.87
2023-03-11T08:49:53.239Z,97571.48
2023-03-11T08:52:26.891Z,97570.35
2023-03-11T08:55:00.444Z,97573.17
2023-03-11T08:57:34.032Z,97580.18
2023-03-11T09:00:11.498Z,97582.92
2023-03-11T09:02:47.970Z,97584.95
2023-03-11T09:05:22.227Z,97586.33
2023-03-11T09:07:55.858Z,97591.61
2023-03-11T09:10:29.453Z,97600.58
2023-03-11T09:13:03.210Z,97602.27
2023-03-11T09:15:37.096Z,97605.95
2023-03-11T09:18:13.190Z,97604.10
2023-03-11T09:20:47.178Z,97609.27
2023-03-11T09:23:21.062Z,97615.58
2023-03-11T09:25:54.755Z,97618.12
2023-03-11T09:28:28.710Z,97620.41
2023-03-11T09:31:02.629Z,97629.41
2023-03-11T09:33:40.214Z,97633.72
2023-03-11T09:36:17.353Z,97638.46
2023-03-11T09:38:51.390Z,97651.80
2023-03-11T09:41:36.663Z,97659.26
2023-03-11T09:44:19.908Z,97669.27
2023-03-11T09:47:14.576Z,97679.67
2023-03-11T09:50:00.037Z,97687.90
2023-03-11T09:52:40.164Z,97699.45
2023-03-11T09:55:35.155Z,97709.86
2023-03-11T09:58:14.926Z,97715.60
2023-03-11T10:00:49.499Z,97723.39
2023-03-11T10:03:32.032Z,97730.23
2023-03-11T10:06:16.605Z,97735.63
2023-03-11T10:09:00.931Z,97738.50
2023-03-11T10:11:51.754Z,97750.00
2023-03-11T10:14:41.104Z,97756.63
2023-03-11T10:17:27.532Z,97764.09
2023-03-11T10:20:10.323Z,97771.02
2023-03-11T10:22:49.387Z,97773.70
2023-03-11T10:25:27.253Z,97779.59
2023-03-11T10:28:08.940Z,97783.78
2023-03-11T10:30:46.971Z,97793.36
2023-03-11T10:33:26.970Z,97797.77
2023-03-11T10:36:06.065Z,97802.27
2023-03-11T10:38:44.197Z,97810.04
2023-03-11T10:41:22.449Z,97818.79
2023-03-11T10:44:03.681Z,97822.99
2023-03-11T10:46:37.639Z,97832.92
2023-03-11T10:49:16.620Z,97836.55
2023-03-11T10:51:52.946Z,97848.60
2023-03-11T10:54:32.120Z,97855.35
2023-03-11T10:57:08.193Z,97864.77
2023-03-11T10:59:51.321Z,97872.15
2023-03-11T11:02:29.830Z,97875.09
2023-03-11T11:05:22.633Z,97883.85
2023-03-11T11:08:06.817Z,97891.67
2023-03-11T11:10:50.712Z,97898.58
2023-03-11T11:13:25.478Z,97904.55
2023-03-11T11:16:04.469Z,97908.64
2023-03-11T11:18:45.050Z,97918.12
2023-03-11T11:21:30.142Z,97924.63
2023-03-11T11:24:17.407Z,97929.80
2023-03-11T11:27:11.651Z,97937.55
2023-03-11T11:29:45.704Z,97941.63
2023-03-11T11:32:26.293Z,97948.95
2023-03-11T11:35:02.143Z,97953.23
2023-03-11T11:37:37.074Z,97962.07
2023-03-11T11:40:25.104Z,97967.95
2023-03-11T11:43:01.474Z,97975.11
2023-03-11T11:45:39.416Z,97987.63
2023-03-11T11:48:21.608Z,97995.55
2023-03-11T11:50:59.896Z,98008.80
2023-03-11T11:53:39.588Z,98013.67
2023-03-11T11:56:13.769Z,98022.18
2023-03-11T11:58:47.603Z,98029.80
2023-03-11T12:01:26.755Z,98035.17
2023-03-11T12:04:23.405Z,98041.55
2023-03-11T12:07:11.663Z,98055.91
2023-03-11T12:09:54.757Z,98062.02
2023-03-11T12:12:35.300Z,98068.48
2023-03-11T12:15:17.175Z,98072.68
2023-03-11T12:17:54.523Z,98080.73
2023-03-11T12:20:33.642Z,98088.64
2023-03-11T12:23:19.548Z,98100.12
2023-03-11T12:26:08.159Z,98106.65
2023-03-11T12:28:44.205Z,98117.53
2023-03-11T12:31:18.237Z,98124.52
2023-03-11T12:33:58.296Z,98126.52
2023-03-11T12:36:35.749Z,98133.55
2023-03-11T12:39:22.650Z,98135.72
2023-03-11T12:42:19.980Z,98149.41
2023-03-11T12:44:54.204Z,98162.61
2023-03-11T12:47:30.913Z,98174.70
2023-03-11T12:50:34.296Z,98184.50
2023-03-11T12:53:08.051Z,98191.55
2023-03-11T12:56:01.779Z,98201.92
2023-03-11T12:59:16.971Z,98210.36
2023-03-11T13:01:58.548Z,98219.55
2023-03-11T13:04:59.971Z,98231.88
2023-03-11T13:07:48.872Z,98232.23
2023-03-11T13:10:38.166Z,98240.05
2023-03-11T13:13:36.963Z,98244.22
2023-03-11T13:16:41.324Z,98252.91
2023-03-11T13:19:48.863Z,98258.48
2023-03-11T13:22:59.406Z,98271.32
2023-03-11T13:25:38.859Z,98278.70
2023-03-11T13:28:32.664Z,98288.85
2023-03-11T13:31:19.651Z,98299.30
2023-03-11T13:33:59.962Z,98305.34
2023-03-11T13:36:57.150Z,98314.72
2023-03-11T13:39:47.136Z,98330.08
2023-03-11T13:42:32.923Z,98334.14
2023-03-11T13:45:09.353Z,98344.08
2023-03-11T13:47:50.187Z,98347.58
2023-03-11T13:50:29.879Z,98350.21
2023-03-11T13:53:09.757Z,98360.57
2023-03-11T13:55:48.010Z,98365.95
2023-03-11T13:58:25.285Z,98375.71
2023-03-11T14:01:00.789Z,98382.88
2023-03-11T14:03:42.678Z,98392.58
2023-03-11T14:06:19.950Z,98394.16
2023-03-11T14:08:59.705Z,98405.31
2023-03-11T14:11:33.523Z,98406.80
2023-03-11T14:14:32.162Z,98418.15
2023-03-11T14:17:06.431Z,98422.81
2023-03-11T14:19:40.310Z,98428.23
2023-03-11T14:22:18.704Z,98440.49
2023-03-11T14:24:53.103Z,98442.36
2023-03-11T14:27:27.178Z,98450.55
2023-03-11T14:30:01.922Z,98455.78
2023-03-11T14:32:37.806Z,98455.42
2023-03-11T14:35:24.780Z,98465.41
2023-03-11T14:37:59.356Z,98477.36
2023-03-11T14:40:41.652Z,98483.36
2023-03-11T14:43:16.442Z,98487.73
2023-03-11T14:45:51.515Z,98491.45
2023-03-11T14:48:32.897Z,98499.56
2023-03-11T14:51:14.404Z,98503.48
2023-03-11T14:53:56.087Z,98510.19
2023-03-11T14:56:32.949Z,98516.61
2023-03-11T14:59:12.874Z,98521.80
2023-03-11T15:01:50.572Z,98527.60
2023-03-11T15:04:33.335Z,98533.98
2023-03-11T15:07:08.830Z,98542.58
2023-03-11T15:09:45.239Z,98547.96
2023-03-11T15:12:35.276Z,98553.68
2023-03-11T15:15:27.973Z,98559.63
2023-03-11T15:18:03.348Z,98567.29
2023-03-11T15:20:39.182Z,98574.89
2023-03-11T15:23:25.639Z,98584.59
2023-03-11T15:26:00.972Z,98588.54
2023-03-11T15:28:38.200Z,98595.02
2023-03-11T15:31:38.131Z,98602.47
2023-03-11T15:34:26.287Z,98606.02
2023-03-11T15:37:06.859Z,98614.49
2023-03-11T15:39:48.774Z,98617.69
2023-03-11T15:42:29.039Z,98620.76
2023-03-11T15:45:18.987Z,98625.46
2023-03-11T15:47:52.941Z,98633.02
2023-03-11T15:50:43.050Z,98638.65
2023-03-11T15:53:26.700Z,98647.73
2023-03-11T15:56:07.847Z,98651.02
2023-03-11T15:58:45.225Z,98659.03
2023-03-11T16:01:24.494Z,98663.05
2023-03-11T16:03:59.489Z,98668.56
2023-03-11T16:06:34.179Z,98676.21
2023-03-11T16:09:07.868Z,98688.01
2023-03-11T16:11:43.013Z,98695.64
2023-03-11T16:14:20.710Z,98700.09
2023-03-11T16:16:54.821Z,98709.45
2023-03-11T16:19:29.142Z,98711.90
2023-03-11T16:22:05.344Z,98715.16
2023-03-11T16:24:40.463Z,98721.96
2023-03-11T16:27:19.394Z,98729.44
2023-03-11T16:29:58.741Z,98732.98
2023-03-11T16:32:34.581Z,98743.35
2023-03-11T16:35:11.754Z,98749.82
2023-03-11T16:37:48.059Z,98756.73
2023-03-11T16:40:26.126Z,98762.25
2023-03-11T16:43:05.817Z,98773.27
2023-03-11T16:45:40.804Z,98780.23
2023-03-11T16:48:16.016Z,98784.34
2023-03-11T16:50:51.528Z,98784.23
2023-03-11T16:53:26.613Z,98787.62
2023-03-11T16:56:01.973Z,98797.35
2023-03-11T16:58:38.529Z,98807.80
2023-03-11T17:01:16.433Z,98815.47
2023-03-11T17:03:53.151Z,98824.41
2023-03-11T17:06:28.015Z,98825.48
2023-03-11T17:09:03.273Z,98834.36
2023-03-11T17:11:38.598Z,98840.00
2023-03-11T17:14:16.903Z,98845.59
2023-03-11T17:16:54.080Z,98849.37
2023-03-11T17:19:35.996Z,98854.72
2023-03-11T17:22:17.233Z,98862.25
2023-03-11T17:24:52.673Z,98866.42
2023-03-11T17:27:32.872Z,98866.77
2023-03-11T17:30:10.892Z,98870.27
2023-03-11T17:32:45.608Z,98871.52
2023-03-11T17:35:22.224Z,98880.23
2023-03-11T17:38:00.180Z,98887.04
2023-03-11T17:40:39.269Z,98889.36
2023-03-11T17:43:15.734Z,98893.69
2023-03-11T17:45:52.948Z,98898.25
2023-03-11T17:48:30.128Z,98911.17
2023-03-11T17:51:13.537Z,98917.71
2023-03-11T17:53:50.786Z,98922.55
2023-03-11T17:56:28.880Z,98927.48
2023-03-11T17:59:05.158Z,98932.77
2023-03-11T18:01:41.626Z,98937.98
2023-03-11T18:04:17.758Z,98940.29
2023-03-11T18:06:54.054Z,98945.52
2023-03-11T18:09:30.300Z,98944.62
2023-03-11T18:12:07.641Z,98950.31
2023-03-11T18:14:47.113Z,98957.10
2023-03-11T18:17:24.265Z,98958.83
2023-03-11T18:20:04.546Z,98964.69
2023-03-11T18:22:44.428Z,98973.36
2023-03-11T18:25:22.352Z,98978.73
2023-03-11T18:27:57.423Z,98985.89
2023-03-11T18:30:40.273Z,98989.98
2023-03-11T18:33:16.071Z,98996.77
2023-03-11T18:35:52.419Z,98998.98
2023-03-11T18:38:27.700Z,99008.77
2023-03-11T18:41:03.305Z,99014.20
2023-03-11T18:43:39.344Z,99012.34
2023-03-11T18:46:15.631Z,99017.94
2023-03-11T18:48:56.216Z,99022.50
2023-03-11T18:51:33.655Z,99030.06
2023-03-11T18:54:13.501Z,99030.12
2023-03-11T18:56:50.591Z,99038.37
2023-03-11T18:59:28.815Z,99043.66
2023-03-11T19:02:04.955Z,99047.55
2023-03-11T19:04:41.013Z,99053.00
2023-03-11T19:07:19.472Z,99054.51
2023-03-11T19:09:54.627Z,99056.28
2023-03-11T19:12:34.667Z,99056.90
2023-03-11T19:15:13.388Z,99064.35
2023-03-11T19:18:04.347Z,99066.17
2023-03-11T19:20:58.763Z,99068.73
2023-03-11T19:23:34.426Z,99073.23
2023-03-11T19:26:13.110Z,99080.33
2023-03-11T19:28:49.707Z,99087.98
2023-03-11T19:31:35.752Z,99094.80
2023-03-11T19:34:11.540Z,99100.89
2023-03-11T19:36:47.979Z,99105.30
2023-03-11T19:39:26.095Z,99110.09
2023-03-11T19:42:05.215Z,99115.54
2023-03-11T19:44:51.073Z,99116.85
2023-03-11T19:47:29.147Z,99121.02
2023-03-11T19:50:04.389Z,99128.06
2023-03-11T19:52:41.560Z,99133.50
2023-03-11T19:55:16.996Z,99136.92
2023-03-11T19:57:55.469Z,99138.33
2023-03-11T20:00:31.457Z,99140.58
2023-03-11T20:03:08.706Z,99144.77
2023-03-11T20:05:48.206Z,99146.30
2023-03-11T20:08:26.654Z,99148.70
2023-03-11T20:11:08.827Z,99151.41
2023-03-11T20:13:45.990Z,99151.51
2023-03-11T20:16:24.387Z,99151.47
2023-03-11T20:18:59.964Z,99154.72
2023-03-11T20:21:40.211Z,99161.89
2023-03-11T20:24:19.018Z,99159.40
2023-03-11T20:26:55.786Z,99168.56
2023-03-11T20:29:35.930Z,99170.41
2023-03-11T20:32:11.723Z,99175.77
2023-03-11T20:34:54.858Z,99177.41
2023-03-11T20:37:34.116Z,99181.36
2023-03-11T20:40:14.143Z,99187.00
2023-03-11T20:42:51.486Z,99192.52
2023-03-11T20:45:28.193Z,99189.80
2023-03-11T20:48:04.723Z,99189.89
2023-03-11T20:50:42.239Z,99192.90
2023-03-11T20:53:18.310Z,99196.64
2023-03-11T20:55:56.789Z,99198.65
2023-03-11T20:58:32.822Z,99201.52
2023-03-11T21:01:16.532Z,99201.09
2023-03-11T21:03:55.549Z,99197.59
2023-03-11T21:06:29.955Z,99198.80
2023-03-11T21:09:07.985Z,99198.52
2023-03-11T21:11:42.662Z,99201.45
2023-03-11T21:14:22.516Z,99200.66
2023-03-11T21:16:58.658Z,99203.63
2023-03-11T21:19:32.548Z,99206.27
2023-03-11T21:22:08.753Z,99210.67
2023-03-11T21:24:44.265Z,99209.84
2023-03-11T21:27:21.433Z,99216.31
2023-03-11T21:29:56.844Z,99219.71
2023-03-11T21:32:33.561Z,99226.80
2023-03-11T21:35:11.495Z,99229.16
2023-03-11T21:37:46.964Z,99227.89
2023-03-11T21:40:22.040Z,99230.41
2023-03-11T21:42:56.032Z,99230.66
2023-03-11T21:45:32.094Z,99232.85
2023-03-11T21:48:09.578Z,99235.52
2023-03-11T21:50:44.373Z,99236.84
2023-03-11T21:53:18.186Z,99241.33
2023-03-11T21:55:52.158Z,99239.46
2023-03-11T21:58:26.410Z,99243.16
2023-03-11T22:01:00.545Z,99240.01
2023-03-11T22:03:36.252Z,99240.59
2023-03-11T22:06:12.698Z,99241.44
2023-03-11T22:08:46.806Z,99242.90
2023-03-11T22:11:21.269Z,99242.92
2023-03-11T22:13:56.388Z,99245.94
2023-03-11T22:16:31.837Z,99251.33
2023-03-11T22:19:09.259Z,99251.21
2023-03-11T22:21:42.841Z,99249.66
2023-03-11T22:24:16.571Z,99251.95
2023-03-11T22:26:50.336Z,99255.87
2023-03-11T22:29:23.915Z,99257.73
2023-03-11T22:31:57.339Z,99259.89
2023-03-11T22:34:31.318Z,99266.89
2023-03-11T22:37:06.454Z,99270.44
2023-03-11T22:39:39.985Z,99272.04
2023-03-11T22:42:13.515Z,99271.63
2023-03-11T22:44:47.490Z,99277.94
2023-03-11T22:47:20.972Z,99281.30
2023-03-11T22:49:55.109Z,99283.98
2023-03-11T22:52:28.845Z,99286.01
2023-03-11T22:55:02.618Z,99284.35
2023-03-11T22:57:39.166Z,99283.20
2023-03-11T23:00:17.467Z,99282.25
2023-03-11T23:02:54.575Z,99280.36
2023-03-11T23:05:28.186Z,99280.06
2023-03-11T23:08:01.722Z,99277.64
2023-03-11T23:10:36.158Z,99282.04
2023-03-11T23:13:10.039Z,99283.06
2023-03-11T23:15:46.313Z,99288.08
2023-03-11T23:18:20.378Z,99291.24
2023-03-11T23:20:54.291Z,99291.77
2023-03-11T23:23:28.204Z,99293.14
2023-03-11T23:26:01.989Z,99295.44
2023-03-11T23:28:35.807Z,99298.55
2023-03-11T23:31:10.465Z,99301.65
2023-03-11T23:33:44.843Z,99304.55
2023-03-11T23:36:20.388Z,99306.36
2023-03-11T23:38:53.794Z,99303.15
2023-03-11T23:41:28.229Z,99310.09
2023-03-11T23:44:01.633Z,99314.46
2023-03-11T23:46:35.414Z,99315.83
2023-03-11T23:49:09.163Z,99316.73
2023-03-11T23:51:42.925Z,99315.05
2023-03-11T23:54:16.476Z,99316.36
2023-03-11T23:56:50.203Z,99320.22
2023-03-11T23:59:24.534Z,99323.35
